sensor_id;sensor_type;location;lat;lon;timestamp;pressure;altitude;pressure_sealevel;temperature;humidity
64967;BME280;51710;38.732;-121.358;2022-11-21T00:01:00;101855.09;;;17.04;35.34
64967;BME280;51710;38.732;-121.358;2022-11-21T00:03:27;101850.41;;;16.98;35.91
64967;BME280;51710;38.732;-121.358;2022-11-21T00:05:54;101849.06;;;16.94;36.26
64967;BME280;51710;38.732;-121.358;2022-11-21T00:08:21;101850.25;;;16.91;36.30
64967;BME280;51710;38.732;-121.358;2022-11-21T00:10:48;101850.25;;;16.91;36.40
64967;BME280;51710;38.732;-121.358;2022-11-21T00:13:19;101855.13;;;16.88;37.01
64967;BME280;51710;38.732;-121.358;2022-11-21T00:15:46;101845.53;;;16.85;36.58
64967;BME280;51710;38.732;-121.358;2022-11-21T00:18:14;101852.44;;;16.79;36.98
64967;BME280;51710;38.732;-121.358;2022-11-21T00:20:41;101846.56;;;16.76;37.20
64967;BME280;51710;38.732;-121.358;2022-11-21T00:23:09;101841.69;;;16.71;37.08
64967;BME280;51710;38.732;-121.358;2022-11-21T00:25:37;101845.22;;;16.64;37.27
64967;BME280;51710;38.732;-121.358;2022-11-21T00:28:04;101841.03;;;16.53;37.87
64967;BME280;51710;38.732;-121.358;2022-11-21T00:30:31;101841.16;;;16.44;37.76
64967;BME280;51710;38.732;-121.358;2022-11-21T00:32:58;101841.31;;;16.34;37.51
64967;BME280;51710;38.732;-121.358;2022-11-21T00:35:26;101836.25;;;16.23;37.46
64967;BME280;51710;38.732;-121.358;2022-11-21T00:37:53;101838.28;;;16.13;38.19
64967;BME280;51710;38.732;-121.358;2022-11-21T00:40:20;101838.59;;;16.02;38.13
64967;BME280;51710;38.732;-121.358;2022-11-21T00:42:46;101838.06;;;15.91;38.13
64967;BME280;51710;38.732;-121.358;2022-11-21T00:45:13;101837.69;;;15.77;38.67
64967;BME280;51710;38.732;-121.358;2022-11-21T00:47:40;101846.38;;;15.63;38.38
64967;BME280;51710;38.732;-121.358;2022-11-21T00:50:09;101844.59;;;15.46;38.57
64967;BME280;51710;38.732;-121.358;2022-11-21T00:52:36;101847.03;;;15.32;38.91
64967;BME280;51710;38.732;-121.358;2022-11-21T00:55:03;101854.84;;;15.17;39.23
64967;BME280;51710;38.732;-121.358;2022-11-21T00:57:30;101855.41;;;15.03;39.20
64967;BME280;51710;38.732;-121.358;2022-11-21T00:59:56;101856.69;;;14.91;39.59
64967;BME280;51710;38.732;-121.358;2022-11-21T01:02:23;101850.44;;;14.83;39.71
64967;BME280;51710;38.732;-121.358;2022-11-21T01:04:50;101852.91;;;14.76;39.97
64967;BME280;51710;38.732;-121.358;2022-11-21T01:07:17;101851.75;;;14.61;39.97
64967;BME280;51710;38.732;-121.358;2022-11-21T01:09:44;101851.94;;;14.42;40.46
64967;BME280;51710;38.732;-121.358;2022-11-21T01:12:11;101855.75;;;14.22;40.66
64967;BME280;51710;38.732;-121.358;2022-11-21T01:14:38;101857.28;;;14.07;40.87
64967;BME280;51710;38.732;-121.358;2022-11-21T01:17:05;101852.44;;;13.93;41.26
64967;BME280;51710;38.732;-121.358;2022-11-21T01:19:31;101861.13;;;13.77;41.61
64967;BME280;51710;38.732;-121.358;2022-11-21T01:21:59;101854.44;;;13.64;41.66
64967;BME280;51710;38.732;-121.358;2022-11-21T01:24:25;101846.91;;;13.49;41.61
64967;BME280;51710;38.732;-121.358;2022-11-21T01:26:52;101852.47;;;13.38;42.13
64967;BME280;51710;38.732;-121.358;2022-11-21T01:29:20;101857.00;;;13.28;42.36
64967;BME280;51710;38.732;-121.358;2022-11-21T01:31:47;101852.81;;;13.16;42.69
64967;BME280;51710;38.732;-121.358;2022-11-21T01:34:15;101855.81;;;13.04;43.29
64967;BME280;51710;38.732;-121.358;2022-11-21T01:36:42;101856.41;;;12.88;43.31
64967;BME280;51710;38.732;-121.358;2022-11-21T01:39:10;101853.19;;;12.75;43.56
64967;BME280;51710;38.732;-121.358;2022-11-21T01:41:42;101851.78;;;12.62;43.72
64967;BME280;51710;38.732;-121.358;2022-11-21T01:44:19;101850.66;;;12.45;43.88
64967;BME280;51710;38.732;-121.358;2022-11-21T01:46:47;101857.56;;;12.28;44.17
64967;BME280;51710;38.732;-121.358;2022-11-21T01:49:20;101857.69;;;12.17;44.42
64967;BME280;51710;38.732;-121.358;2022-11-21T01:52:00;101859.66;;;12.06;44.69
64967;BME280;51710;38.732;-121.358;2022-11-21T01:54:39;101859.78;;;11.95;45.19
64967;BME280;51710;38.732;-121.358;2022-11-21T02:02:29;101855.88;;;11.59;45.75
64967;BME280;51710;38.732;-121.358;2022-11-21T02:04:59;101851.38;;;11.50;45.86
64967;BME280;51710;38.732;-121.358;2022-11-21T02:07:29;101849.91;;;11.37;46.51
64967;BME280;51710;38.732;-121.358;2022-11-21T02:10:00;101849.72;;;11.28;46.63
64967;BME280;51710;38.732;-121.358;2022-11-21T02:12:29;101851.22;;;11.21;47.14
64967;BME280;51710;38.732;-121.358;2022-11-21T02:14:58;101858.06;;;11.14;46.76
64967;BME280;51710;38.732;-121.358;2022-11-21T02:17:28;101856.19;;;11.05;47.36
64967;BME280;51710;38.732;-121.358;2022-11-21T02:20:09;101858.13;;;10.94;47.14
64967;BME280;51710;38.732;-121.358;2022-11-21T02:25:25;101859.28;;;10.80;47.44
64967;BME280;51710;38.732;-121.358;2022-11-21T02:28:02;101859.34;;;10.69;47.07
64967;BME280;51710;38.732;-121.358;2022-11-21T02:30:31;101866.44;;;10.59;47.72
64967;BME280;51710;38.732;-121.358;2022-11-21T02:32:59;101855.84;;;10.48;48.54
64967;BME280;51710;38.732;-121.358;2022-11-21T02:35:25;101857.31;;;10.41;48.58
64967;BME280;51710;38.732;-121.358;2022-11-21T02:40:40;101858.34;;;10.29;49.08
64967;BME280;51710;38.732;-121.358;2022-11-21T02:43:41;101869.66;;;10.22;49.44
64967;BME280;51710;38.732;-121.358;2022-11-21T02:46:10;101863.16;;;10.14;49.20
64967;BME280;51710;38.732;-121.358;2022-11-21T02:48:37;101862.88;;;10.06;49.52
64967;BME280;51710;38.732;-121.358;2022-11-21T02:51:05;101860.13;;;9.97;49.81
64967;BME280;51710;38.732;-121.358;2022-11-21T02:53:31;101867.16;;;9.87;49.89
64967;BME280;51710;38.732;-121.358;2022-11-21T02:55:58;101860.91;;;9.77;50.22
64967;BME280;51710;38.732;-121.358;2022-11-21T02:58:25;101862.50;;;9.68;50.41
64967;BME280;51710;38.732;-121.358;2022-11-21T03:00:52;101861.28;;;9.61;50.58
64967;BME280;51710;38.732;-121.358;2022-11-21T03:03:21;101864.31;;;9.57;50.79
64967;BME280;51710;38.732;-121.358;2022-11-21T03:05:48;101863.84;;;9.52;51.04
64967;BME280;51710;38.732;-121.358;2022-11-21T03:08:15;101863.84;;;9.41;50.90
64967;BME280;51710;38.732;-121.358;2022-11-21T03:10:42;101872.41;;;9.33;51.41
64967;BME280;51710;38.732;-121.358;2022-11-21T03:13:09;101859.75;;;9.26;51.35
64967;BME280;51710;38.732;-121.358;2022-11-21T03:15:36;101864.56;;;9.21;51.55
64967;BME280;51710;38.732;-121.358;2022-11-21T03:18:03;101865.78;;;9.17;51.67
64967;BME280;51710;38.732;-121.358;2022-11-21T03:20:32;101862.66;;;9.12;51.71
64967;BME280;51710;38.732;-121.358;2022-11-21T03:23:00;101866.75;;;9.04;52.07
64967;BME280;51710;38.732;-121.358;2022-11-21T03:25:27;101861.16;;;8.96;52.34
64967;BME280;51710;38.732;-121.358;2022-11-21T03:27:53;101865.03;;;8.92;52.36
64967;BME280;51710;38.732;-121.358;2022-11-21T03:30:21;101865.25;;;8.89;52.53
64967;BME280;51710;38.732;-121.358;2022-11-21T03:32:48;101863.09;;;8.83;52.46
64967;BME280;51710;38.732;-121.358;2022-11-21T03:35:15;101859.09;;;8.78;52.98
64967;BME280;51710;38.732;-121.358;2022-11-21T03:37:43;101855.09;;;8.72;52.98
64967;BME280;51710;38.732;-121.358;2022-11-21T03:40:10;101858.94;;;8.68;52.90
64967;BME280;51710;38.732;-121.358;2022-11-21T03:42:37;101861.09;;;8.63;53.27
64967;BME280;51710;38.732;-121.358;2022-11-21T03:45:04;101862.75;;;8.53;53.75
64967;BME280;51710;38.732;-121.358;2022-11-21T03:47:31;101865.16;;;8.45;53.44
64967;BME280;51710;38.732;-121.358;2022-11-21T03:49:58;101858.63;;;8.38;54.13
64967;BME280;51710;38.732;-121.358;2022-11-21T03:52:24;101862.34;;;8.36;54.25
64967;BME280;51710;38.732;-121.358;2022-11-21T03:54:52;101867.03;;;8.32;53.93
64967;BME280;51710;38.732;-121.358;2022-11-21T03:57:18;101867.50;;;8.26;54.11
64967;BME280;51710;38.732;-121.358;2022-11-21T03:59:45;101871.31;;;8.22;54.85
64967;BME280;51710;38.732;-121.358;2022-11-21T04:02:12;101870.69;;;8.19;54.45
64967;BME280;51710;38.732;-121.358;2022-11-21T04:04:39;101876.72;;;8.21;54.40
64967;BME280;51710;38.732;-121.358;2022-11-21T04:07:06;101872.25;;;8.21;54.39
64967;BME280;51710;38.732;-121.358;2022-11-21T04:09:33;101867.91;;;8.20;54.54
64967;BME280;51710;38.732;-121.358;2022-11-21T04:12:00;101873.69;;;8.14;54.89
64967;BME280;51710;38.732;-121.358;2022-11-21T04:14:27;101874.88;;;8.10;54.76
64967;BME280;51710;38.732;-121.358;2022-11-21T04:16:54;101876.28;;;8.03;55.06
64967;BME280;51710;38.732;-121.358;2022-11-21T04:19:21;101878.84;;;7.92;55.63
64967;BME280;51710;38.732;-121.358;2022-11-21T04:21:48;101877.59;;;7.85;55.73
64967;BME280;51710;38.732;-121.358;2022-11-21T04:24:15;101876.16;;;7.81;55.34
64967;BME280;51710;38.732;-121.358;2022-11-21T04:26:41;101878.50;;;7.73;55.80
64967;BME280;51710;38.732;-121.358;2022-11-21T04:29:08;101880.88;;;7.65;56.03
64967;BME280;51710;38.732;-121.358;2022-11-21T04:31:36;101892.34;;;7.53;56.09
64967;BME280;51710;38.732;-121.358;2022-11-21T04:34:02;101890.00;;;7.48;56.15
64967;BME280;51710;38.732;-121.358;2022-11-21T04:36:29;101894.47;;;7.48;56.16
64967;BME280;51710;38.732;-121.358;2022-11-21T04:38:55;101891.81;;;7.48;56.53
64967;BME280;51710;38.732;-121.358;2022-11-21T04:41:23;101896.50;;;7.44;56.85
64967;BME280;51710;38.732;-121.358;2022-11-21T04:43:49;101898.94;;;7.35;56.79
64967;BME280;51710;38.732;-121.358;2022-11-21T04:46:17;101895.97;;;7.27;56.93
64967;BME280;51710;38.732;-121.358;2022-11-21T04:48:43;101895.47;;;7.22;56.78
64967;BME280;51710;38.732;-121.358;2022-11-21T04:51:11;101899.91;;;7.21;56.91
64967;BME280;51710;38.732;-121.358;2022-11-21T04:53:37;101893.00;;;7.19;57.20
64967;BME280;51710;38.732;-121.358;2022-11-21T04:56:05;101896.84;;;7.15;57.24
64967;BME280;51710;38.732;-121.358;2022-11-21T04:58:32;101903.06;;;7.14;57.28
64967;BME280;51710;38.732;-121.358;2022-11-21T05:01:05;101892.06;;;7.07;57.81
64967;BME280;51710;38.732;-121.358;2022-11-21T05:03:33;101893.56;;;6.99;57.84
64967;BME280;51710;38.732;-121.358;2022-11-21T05:06:00;101899.13;;;6.94;57.72
64967;BME280;51710;38.732;-121.358;2022-11-21T05:08:29;101903.78;;;6.91;57.68
64967;BME280;51710;38.732;-121.358;2022-11-21T05:10:56;101896.41;;;6.83;57.75
64967;BME280;51710;38.732;-121.358;2022-11-21T05:13:41;101900.84;;;6.82;57.95
64967;BME280;51710;38.732;-121.358;2022-11-21T05:16:07;101901.06;;;6.79;57.75
64967;BME280;51710;38.732;-121.358;2022-11-21T05:18:34;101904.22;;;6.72;57.99
64967;BME280;51710;38.732;-121.358;2022-11-21T05:21:02;101904.00;;;6.62;58.37
64967;BME280;51710;38.732;-121.358;2022-11-21T05:23:28;101910.66;;;6.55;58.53
64967;BME280;51710;38.732;-121.358;2022-11-21T05:25:56;101907.97;;;6.43;59.02
64967;BME280;51710;38.732;-121.358;2022-11-21T05:28:22;101909.59;;;6.31;59.29
64967;BME280;51710;38.732;-121.358;2022-11-21T05:30:50;101913.41;;;6.27;59.41
64967;BME280;51710;38.732;-121.358;2022-11-21T05:33:17;101911.16;;;6.21;59.33
64967;BME280;51710;38.732;-121.358;2022-11-21T05:35:44;101916.09;;;6.13;59.28
64967;BME280;51710;38.732;-121.358;2022-11-21T05:38:12;101913.09;;;6.05;59.66
64967;BME280;51710;38.732;-121.358;2022-11-21T05:40:39;101915.09;;;6.02;59.75
64967;BME280;51710;38.732;-121.358;2022-11-21T05:43:06;101919.66;;;6.00;59.84
64967;BME280;51710;38.732;-121.358;2022-11-21T05:45:50;101917.50;;;5.92;60.17
64967;BME280;51710;38.732;-121.358;2022-11-21T05:48:17;101913.34;;;5.88;60.23
64967;BME280;51710;38.732;-121.358;2022-11-21T05:50:47;101916.84;;;5.89;60.22
64967;BME280;51710;38.732;-121.358;2022-11-21T05:53:17;101913.88;;;5.93;60.17
64967;BME280;51710;38.732;-121.358;2022-11-21T05:55:44;101915.41;;;5.97;60.44
64967;BME280;51710;38.732;-121.358;2022-11-21T05:58:11;101916.25;;;5.98;60.04
64967;BME280;51710;38.732;-121.358;2022-11-21T06:00:38;101923.69;;;5.91;60.40
64967;BME280;51710;38.732;-121.358;2022-11-21T06:03:05;101919.00;;;5.82;60.16
64967;BME280;51710;38.732;-121.358;2022-11-21T06:06:14;101919.66;;;5.71;60.52
64967;BME280;51710;38.732;-121.358;2022-11-21T06:08:45;101914.56;;;5.68;60.95
64967;BME280;51710;38.732;-121.358;2022-11-21T06:11:14;101925.22;;;5.67;60.72
64967;BME280;51710;38.732;-121.358;2022-11-21T06:13:42;101924.47;;;5.65;60.97
64967;BME280;51710;38.732;-121.358;2022-11-21T06:16:13;101933.56;;;5.61;61.07
64967;BME280;51710;38.732;-121.358;2022-11-21T06:18:42;101933.72;;;5.58;61.13
64967;BME280;51710;38.732;-121.358;2022-11-21T06:23:39;101942.91;;;5.52;61.47
64967;BME280;51710;38.732;-121.358;2022-11-21T06:26:25;101936.19;;;5.47;62.04
64967;BME280;51710;38.732;-121.358;2022-11-21T06:28:53;101943.56;;;5.42;61.62
64967;BME280;51710;38.732;-121.358;2022-11-21T06:31:23;101941.19;;;5.37;61.79
64967;BME280;51710;38.732;-121.358;2022-11-21T06:33:56;101945.66;;;5.37;61.97
64967;BME280;51710;38.732;-121.358;2022-11-21T06:36:24;101939.41;;;5.38;61.76
64967;BME280;51710;38.732;-121.358;2022-11-21T06:38:53;101936.75;;;5.38;62.11
64967;BME280;51710;38.732;-121.358;2022-11-21T06:41:23;101941.84;;;5.41;61.88
64967;BME280;51710;38.732;-121.358;2022-11-21T06:43:50;101949.00;;;5.39;62.26
64967;BME280;51710;38.732;-121.358;2022-11-21T06:46:17;101940.53;;;5.34;62.13
64967;BME280;51710;38.732;-121.358;2022-11-21T06:48:44;101945.03;;;5.32;62.19
64967;BME280;51710;38.732;-121.358;2022-11-21T06:53:40;101935.06;;;5.23;62.38
64967;BME280;51710;38.732;-121.358;2022-11-21T06:56:06;101936.53;;;5.13;62.60
64967;BME280;51710;38.732;-121.358;2022-11-21T06:58:34;101929.78;;;5.09;62.83
64967;BME280;51710;38.732;-121.358;2022-11-21T07:01:08;101933.72;;;5.02;62.90
64967;BME280;51710;38.732;-121.358;2022-11-21T07:03:36;101938.44;;;4.97;63.13
64967;BME280;51710;38.732;-121.358;2022-11-21T07:06:04;101941.41;;;4.91;62.76
64967;BME280;51710;38.732;-121.358;2022-11-21T07:08:34;101938.66;;;4.78;62.92
64967;BME280;51710;38.732;-121.358;2022-11-21T07:11:06;101933.53;;;4.61;62.89
64967;BME280;51710;38.732;-121.358;2022-11-21T07:13:34;101940.00;;;4.55;63.30
64967;BME280;51710;38.732;-121.358;2022-11-21T07:16:07;101936.50;;;4.55;63.58
64967;BME280;51710;38.732;-121.358;2022-11-21T07:18:34;101934.38;;;4.62;63.51
64967;BME280;51710;38.732;-121.358;2022-11-21T07:21:04;101934.00;;;4.68;63.66
64967;BME280;51710;38.732;-121.358;2022-11-21T07:23:34;101939.13;;;4.71;63.96
64967;BME280;51710;38.732;-121.358;2022-11-21T07:26:04;101936.31;;;4.74;63.72
64967;BME280;51710;38.732;-121.358;2022-11-21T07:28:32;101939.84;;;4.73;63.55
64967;BME280;51710;38.732;-121.358;2022-11-21T07:31:00;101946.94;;;4.72;63.97
64967;BME280;51710;38.732;-121.358;2022-11-21T07:33:29;101946.09;;;4.72;63.65
64967;BME280;51710;38.732;-121.358;2022-11-21T07:35:56;101944.31;;;4.72;64.00
64967;BME280;51710;38.732;-121.358;2022-11-21T07:38:26;101943.44;;;4.72;63.69
64967;BME280;51710;38.732;-121.358;2022-11-21T07:40:55;101941.66;;;4.72;64.09
64967;BME280;51710;38.732;-121.358;2022-11-21T07:43:22;101944.97;;;4.76;64.13
64967;BME280;51710;38.732;-121.358;2022-11-21T07:45:48;101948.28;;;4.79;63.69
64967;BME280;51710;38.732;-121.358;2022-11-21T07:48:16;101951.69;;;4.81;63.91
64967;BME280;51710;38.732;-121.358;2022-11-21T07:50:43;101945.56;;;4.81;63.77
64967;BME280;51710;38.732;-121.358;2022-11-21T07:53:10;101950.84;;;4.81;63.89
64967;BME280;51710;38.732;-121.358;2022-11-21T07:55:37;101939.31;;;4.82;64.47
64967;BME280;51710;38.732;-121.358;2022-11-21T07:58:07;101945.38;;;4.84;64.04
64967;BME280;51710;38.732;-121.358;2022-11-21T08:00:36;101939.06;;;4.86;63.93
64967;BME280;51710;38.732;-121.358;2022-11-21T08:03:05;101938.41;;;4.83;64.38
64967;BME280;51710;38.732;-121.358;2022-11-21T08:05:36;101933.47;;;4.77;63.72
64967;BME280;51710;38.732;-121.358;2022-11-21T08:08:07;101938.06;;;4.73;64.01
64967;BME280;51710;38.732;-121.358;2022-11-21T08:10:40;101941.00;;;4.69;63.94
64967;BME280;51710;38.732;-121.358;2022-11-21T08:13:07;101939.47;;;4.65;63.98
64967;BME280;51710;38.732;-121.358;2022-11-21T08:15:34;101937.19;;;4.58;64.16
64967;BME280;51710;38.732;-121.358;2022-11-21T08:18:08;101937.63;;;4.51;64.40
64967;BME280;51710;38.732;-121.358;2022-11-21T08:20:35;101935.88;;;4.51;64.00
64967;BME280;51710;38.732;-121.358;2022-11-21T08:23:03;101939.31;;;4.52;64.31
64967;BME280;51710;38.732;-121.358;2022-11-21T08:25:33;101935.25;;;4.46;63.98
64967;BME280;51710;38.732;-121.358;2022-11-21T08:28:02;101929.31;;;4.43;64.17
64967;BME280;51710;38.732;-121.358;2022-11-21T08:30:30;101932.03;;;4.41;64.29
64967;BME280;51710;38.732;-121.358;2022-11-21T08:32:59;101931.13;;;4.42;64.09
64967;BME280;51710;38.732;-121.358;2022-11-21T08:35:28;101927.63;;;4.42;64.02
64967;BME280;51710;38.732;-121.358;2022-11-21T08:37:59;101926.59;;;4.44;64.32
64967;BME280;51710;38.732;-121.358;2022-11-21T08:40:28;101920.47;;;4.44;64.21
64967;BME280;51710;38.732;-121.358;2022-11-21T08:43:03;101925.06;;;4.40;64.11
64967;BME280;51710;38.732;-121.358;2022-11-21T08:45:31;101917.41;;;4.36;64.25
64967;BME280;51710;38.732;-121.358;2022-11-21T08:47:58;101915.06;;;4.31;64.41
64967;BME280;51710;38.732;-121.358;2022-11-21T08:50:25;101915.56;;;4.22;64.17
64967;BME280;51710;38.732;-121.358;2022-11-21T08:53:02;101908.28;;;4.12;64.33
64967;BME280;51710;38.732;-121.358;2022-11-21T08:55:29;101911.19;;;4.07;64.57
64967;BME280;51710;38.732;-121.358;2022-11-21T08:57:56;101904.97;;;4.08;64.83
64967;BME280;51710;38.732;-121.358;2022-11-21T09:00:23;101912.03;;;4.08;64.87
64967;BME280;51710;38.732;-121.358;2022-11-21T09:02:50;101902.31;;;4.08;64.83
64967;BME280;51710;38.732;-121.358;2022-11-21T09:05:17;101907.78;;;4.05;64.75
64967;BME280;51710;38.732;-121.358;2022-11-21T09:07:44;101900.88;;;4.03;64.92
64967;BME280;51710;38.732;-121.358;2022-11-21T09:10:10;101902.84;;;3.99;64.76
64967;BME280;51710;38.732;-121.358;2022-11-21T09:12:38;101896.06;;;3.95;64.77
64967;BME280;51710;38.732;-121.358;2022-11-21T09:15:05;101899.78;;;3.91;64.57
64967;BME280;51710;38.732;-121.358;2022-11-21T09:17:50;101896.41;;;3.89;64.42
64967;BME280;51710;38.732;-121.358;2022-11-21T09:20:37;101896.41;;;3.89;64.57
64967;BME280;51710;38.732;-121.358;2022-11-21T09:23:06;101900.16;;;3.85;64.99
64967;BME280;51710;38.732;-121.358;2022-11-21T09:25:33;101893.53;;;3.78;64.99
64967;BME280;51710;38.732;-121.358;2022-11-21T09:28:04;101895.63;;;3.72;64.90
64967;BME280;51710;38.732;-121.358;2022-11-21T09:30:32;101892.50;;;3.65;65.27
64967;BME280;51710;38.732;-121.358;2022-11-21T09:33:00;101891.13;;;3.58;65.32
64967;BME280;51710;38.732;-121.358;2022-11-21T09:35:28;101886.22;;;3.52;65.40
64967;BME280;51710;38.732;-121.358;2022-11-21T09:37:55;101888.00;;;3.52;65.34
64967;BME280;51710;38.732;-121.358;2022-11-21T09:40:22;101883.50;;;3.54;65.59
64967;BME280;51710;38.732;-121.358;2022-11-21T09:42:59;101888.06;;;3.50;65.09
64967;BME280;51710;38.732;-121.358;2022-11-21T09:45:29;101891.28;;;3.39;65.14
64967;BME280;51710;38.732;-121.358;2022-11-21T09:47:58;101886.53;;;3.30;65.35
64967;BME280;51710;38.732;-121.358;2022-11-21T09:50:35;101883.38;;;3.24;65.95
64967;BME280;51710;38.732;-121.358;2022-11-21T09:53:32;101887.84;;;3.22;65.76
64967;BME280;51710;38.732;-121.358;2022-11-21T09:56:03;101891.56;;;3.18;66.10
64967;BME280;51710;38.732;-121.358;2022-11-21T10:01:37;101892.75;;;3.12;66.08
64967;BME280;51710;38.732;-121.358;2022-11-21T10:04:04;101893.59;;;3.13;66.21
64967;BME280;51710;38.732;-121.358;2022-11-21T10:06:48;101890.88;;;3.14;66.28
64967;BME280;51710;38.732;-121.358;2022-11-21T10:09:39;101900.41;;;3.17;66.54
64967;BME280;51710;38.732;-121.358;2022-11-21T10:12:16;101893.44;;;3.16;66.52
64967;BME280;51710;38.732;-121.358;2022-11-21T10:15:28;101897.19;;;3.12;66.54
64967;BME280;51710;38.732;-121.358;2022-11-21T10:18:21;101899.66;;;3.15;66.54
64967;BME280;51710;38.732;-121.358;2022-11-21T10:31:48;101882.13;;;3.14;65.78
64967;BME280;51710;38.732;-121.358;2022-11-21T10:34:21;101885.97;;;3.08;66.52
64967;BME280;51710;38.732;-121.358;2022-11-21T10:37:02;101881.00;;;3.02;66.58
64967;BME280;51710;38.732;-121.358;2022-11-21T10:39:53;101883.03;;;2.97;66.56
64967;BME280;51710;38.732;-121.358;2022-11-21T10:42:39;101887.69;;;2.92;67.04
64967;BME280;51710;38.732;-121.358;2022-11-21T10:45:12;101877.34;;;2.89;66.48
64967;BME280;51710;38.732;-121.358;2022-11-21T10:47:49;101880.97;;;2.87;67.23
64967;BME280;51710;38.732;-121.358;2022-11-21T10:50:38;101875.88;;;2.84;66.92
64967;BME280;51710;38.732;-121.358;2022-11-21T10:53:23;101883.84;;;2.82;67.56
64967;BME280;51710;38.732;-121.358;2022-11-21T10:56:18;101885.47;;;2.85;67.43
64967;BME280;51710;38.732;-121.358;2022-11-21T10:58:49;101891.50;;;2.87;67.35
64967;BME280;51710;38.732;-121.358;2022-11-21T11:01:29;101887.78;;;2.91;67.15
64967;BME280;51710;38.732;-121.358;2022-11-21T11:06:44;101889.38;;;2.93;67.65
64967;BME280;51710;38.732;-121.358;2022-11-21T11:09:27;101878.94;;;2.92;67.67
64967;BME280;51710;38.732;-121.358;2022-11-21T11:12:25;101884.97;;;2.94;67.18
64967;BME280;51710;38.732;-121.358;2022-11-21T11:15:21;101880.50;;;2.96;67.74
64967;BME280;51710;38.732;-121.358;2022-11-21T11:17:55;101880.31;;;2.99;67.18
64967;BME280;51710;38.732;-121.358;2022-11-21T11:23:24;101874.75;;;3.05;67.56
64967;BME280;51710;38.732;-121.358;2022-11-21T11:25:58;101871.34;;;3.03;67.52
64967;BME280;51710;38.732;-121.358;2022-11-21T11:28:32;101876.00;;;2.98;67.05
64967;BME280;51710;38.732;-121.358;2022-11-21T11:31:00;101880.66;;;2.93;67.28
64967;BME280;51710;38.732;-121.358;2022-11-21T11:33:31;101867.81;;;2.87;67.60
64967;BME280;51710;38.732;-121.358;2022-11-21T11:36:11;101871.53;;;2.83;67.84
64967;BME280;51710;38.732;-121.358;2022-11-21T11:38:51;101868.75;;;2.86;67.89
64967;BME280;51710;38.732;-121.358;2022-11-21T11:41:45;101880.28;;;2.83;67.69
64967;BME280;51710;38.732;-121.358;2022-11-21T11:45:04;101878.50;;;2.84;67.50
64967;BME280;51710;38.732;-121.358;2022-11-21T11:47:59;101877.66;;;2.83;67.73
64967;BME280;51710;38.732;-121.358;2022-11-21T11:53:25;101884.53;;;2.86;67.61
64967;BME280;51710;38.732;-121.358;2022-11-21T11:56:02;101880.19;;;2.85;67.46
64967;BME280;51710;38.732;-121.358;2022-11-21T11:59:00;101885.53;;;2.83;67.52
64967;BME280;51710;38.732;-121.358;2022-11-21T12:06:51;101875.59;;;2.56;67.41
64967;BME280;51710;38.732;-121.358;2022-11-21T12:12:09;101877.91;;;2.45;67.55
64967;BME280;51710;38.732;-121.358;2022-11-21T12:23:00;101882.31;;;2.61;67.96
64967;BME280;51710;38.732;-121.358;2022-11-21T12:25:35;101880.59;;;2.60;67.78
64967;BME280;51710;38.732;-121.358;2022-11-21T12:28:09;101883.56;;;2.54;67.93
64967;BME280;51710;38.732;-121.358;2022-11-21T12:30:50;101884.38;;;2.55;68.64
64967;BME280;51710;38.732;-121.358;2022-11-21T12:33:22;101884.25;;;2.58;68.67
64967;BME280;51710;38.732;-121.358;2022-11-21T12:39:11;101891.91;;;2.62;68.33
64967;BME280;51710;38.732;-121.358;2022-11-21T12:44:56;101890.91;;;2.65;68.77
64967;BME280;51710;38.732;-121.358;2022-11-21T12:54:08;101894.44;;;2.12;68.62
64967;BME280;51710;38.732;-121.358;2022-11-21T12:59:25;101897.19;;;2.09;69.03
64967;BME280;51710;38.732;-121.358;2022-11-21T13:02:01;101884.47;;;2.19;69.04
64967;BME280;51710;38.732;-121.358;2022-11-21T13:04:37;101894.44;;;2.29;69.20
64967;BME280;51710;38.732;-121.358;2022-11-21T13:07:06;101898.38;;;2.38;69.14
64967;BME280;51710;38.732;-121.358;2022-11-21T13:09:41;101881.56;;;2.42;68.57
64967;BME280;51710;38.732;-121.358;2022-11-21T13:12:17;101884.19;;;2.42;68.30
64967;BME280;51710;38.732;-121.358;2022-11-21T13:15:01;101878.06;;;2.42;68.31
64967;BME280;51710;38.732;-121.358;2022-11-21T13:17:49;101886.72;;;2.44;68.02
64967;BME280;51710;38.732;-121.358;2022-11-21T13:20:26;101886.03;;;2.40;68.40
64967;BME280;51710;38.732;-121.358;2022-11-21T13:22:59;101882.88;;;2.34;68.33
64967;BME280;51710;38.732;-121.358;2022-11-21T13:30:50;101869.78;;;2.15;68.12
64967;BME280;51710;38.732;-121.358;2022-11-21T13:36:05;101880.88;;;2.03;68.30
64967;BME280;51710;38.732;-121.358;2022-11-21T13:47:08;101896.25;;;1.93;68.66
64967;BME280;51710;38.732;-121.358;2022-11-21T13:57:48;101902.31;;;2.12;68.98
64967;BME280;51710;38.732;-121.358;2022-11-21T14:00:33;101909.00;;;2.18;68.77
64967;BME280;51710;38.732;-121.358;2022-11-21T14:03:27;101905.56;;;2.17;69.10
64967;BME280;51710;38.732;-121.358;2022-11-21T14:12:00;101907.78;;;2.25;69.18
64967;BME280;51710;38.732;-121.358;2022-11-21T14:17:43;101902.25;;;2.31;69.26
64967;BME280;51710;38.732;-121.358;2022-11-21T14:20:19;101896.84;;;2.34;69.33
64967;BME280;51710;38.732;-121.358;2022-11-21T14:23:26;101905.75;;;2.32;68.97
64967;BME280;51710;38.732;-121.358;2022-11-21T14:28:31;101912.75;;;2.14;68.75
64967;BME280;51710;38.732;-121.358;2022-11-21T14:31:06;101919.84;;;2.12;68.63
64967;BME280;51710;38.732;-121.358;2022-11-21T14:33:35;101913.81;;;2.10;68.82
64967;BME280;51710;38.732;-121.358;2022-11-21T14:36:10;101922.69;;;2.07;68.26